Time;durP1;ratioP1;P1;durP2;ratioP2;P2;SDS_P1;SDS_P2;PMS_P1;PMS_P2;Temp;Humidity;BMP_temperature;BMP_pressure;BME280_temperature;BME280_humidity;BME280_pressure;Samples;Min_cycle;Max_cycle;Signal;HPM_P1;HPM_P2
2021/10/18 00:00:51;;;;;;;32.13;12.63;;;;;;;-145.69;100.00;72481.03;5096267;28;20202;-76
2021/10/18 00:03:18;;;;;;;36.83;13.57;;;;;;;-145.69;100.00;72496.97;5096145;28;20198;-76
2021/10/18 00:05:44;;;;;;;32.93;14.40;;;;;;;-145.69;100.00;72504.94;5095801;28;20202;-76
2021/10/18 00:08:11;;;;;;;37.00;14.30;;;;;;;-145.69;100.00;72498.97;5096366;28;20255;-76
2021/10/18 00:10:38;;;;;;;36.17;14.50;;;;;;;-145.69;100.00;72500.94;5095994;28;20710;-75
2021/10/18 00:13:04;;;;;;;30.13;12.73;;;;;;;-145.69;100.00;72500.94;5094960;28;20214;-76
2021/10/18 00:15:31;;;;;;;28.80;12.10;;;;;;;-145.69;100.00;72500.94;5095109;28;20206;-76
2021/10/18 00:17:59;;;;;;;35.60;14.40;;;;;;;-145.69;100.00;72500.94;5095794;28;20206;-76
2021/10/18 00:20:27;;;;;;;35.77;15.53;;;;;;;-145.69;100.00;72506.91;5095895;28;20706;-76
2021/10/18 00:22:53;;;;;;;31.53;13.20;;;;;;;-145.69;100.00;72518.88;5095901;28;20223;-76
2021/10/18 00:25:20;;;;;;;36.67;13.93;;;;;;;-145.69;100.00;72528.81;5095907;28;20198;-76
2021/10/18 00:27:47;;;;;;;36.17;14.37;;;;;;;-145.69;100.00;72544.75;5095833;28;20209;-76
2021/10/18 00:30:15;;;;;;;38.47;13.70;;;;;;;-145.69;100.00;72560.66;5095851;28;20217;-76
2021/10/18 00:32:42;;;;;;;41.67;15.93;;;;;;;-145.69;100.00;72572.59;5095554;28;20201;-76
2021/10/18 00:35:10;;;;;;;38.17;15.20;;;;;;;-145.69;100.00;72576.59;5095463;28;20238;-76
2021/10/18 00:37:38;;;;;;;42.90;14.83;;;;;;;-145.69;100.00;72596.50;5094838;28;20202;-76
2021/10/18 00:40:07;;;;;;;40.10;14.53;;;;;;;-145.69;100.00;72606.44;5095746;28;20206;-76
2021/10/18 00:42:34;;;;;;;38.77;13.93;;;;;;;-145.69;100.00;72628.34;5095492;28;20205;-76
2021/10/18 00:45:01;;;;;;;45.33;14.73;;;;;;;-145.69;100.00;72640.28;5095350;28;20206;-76
2021/10/18 00:47:28;;;;;;;39.57;14.03;;;;;;;-145.69;100.00;72650.22;5095692;28;20289;-76
2021/10/18 00:49:54;;;;;;;32.87;12.13;;;;;;;-145.69;100.00;72676.09;5095503;28;20202;-76
2021/10/18 00:52:23;;;;;;;33.23;12.70;;;;;;;-145.69;100.00;72696.00;5095530;28;20209;-76
2021/10/18 00:54:50;;;;;;;35.70;13.23;;;;;;;-145.69;100.00;72717.91;5095269;28;20222;-76
2021/10/18 00:57:17;;;;;;;37.87;13.77;;;;;;;-145.69;100.00;72723.88;5095017;28;20233;-77
2021/10/18 00:59:45;;;;;;;35.40;12.50;;;;;;;-145.69;100.00;72735.81;5095225;28;20259;-76
2021/10/18 01:02:12;;;;;;;36.10;13.37;;;;;;;-145.69;100.00;72751.75;5095346;28;20198;-77
2021/10/18 01:04:38;;;;;;;43.40;14.17;;;;;;;-145.69;100.00;72747.78;5093133;28;20251;-76
2021/10/18 01:07:06;;;;;;;41.63;13.83;;;;;;;-145.69;100.00;72751.75;5095073;28;20556;-75
2021/10/18 01:09:34;;;;;;;44.17;14.50;;;;;;;-145.69;100.00;72759.72;5095105;28;20542;-75
2021/10/18 01:12:00;;;;;;;40.57;12.93;;;;;;;-145.69;100.00;72773.66;5094813;28;20198;-75
2021/10/18 01:14:26;;;;;;;47.45;17.17;;;;;;;-145.69;100.00;72779.63;5093928;28;20947;-75
2021/10/18 01:16:53;;;;;;;39.13;13.73;;;;;;;-145.69;100.00;72773.66;5094804;28;20198;-76
2021/10/18 01:19:21;;;;;;;39.17;13.37;;;;;;;-145.69;100.00;72759.72;5094934;28;20202;-76
2021/10/18 01:21:51;;;;;;;42.57;13.17;;;;;;;-145.69;100.00;72743.78;5094858;28;20297;-76
2021/10/18 01:24:17;;;;;;;55.90;16.63;;;;;;;-145.69;100.00;72721.88;5094250;28;20432;-76
2021/10/18 01:26:44;;;;;;;41.80;13.50;;;;;;;-145.69;100.00;72715.91;5094682;28;20203;-76
2021/10/18 01:29:10;;;;;;;44.03;13.63;;;;;;;-145.69;100.00;72707.97;5094734;28;20235;-76
2021/10/18 01:31:39;;;;;;;46.70;14.17;;;;;;;-145.69;100.00;72696.00;5094793;28;20607;-75
2021/10/18 01:34:05;;;;;;;53.80;15.37;;;;;;;-145.69;100.00;72676.09;5094385;28;20711;-75
2021/10/18 01:36:32;;;;;;;44.97;13.90;;;;;;;-145.69;100.00;72668.16;5094524;28;20198;-75
2021/10/18 01:39:00;;;;;;;42.83;13.40;;;;;;;-145.69;100.00;72660.19;5094409;28;20206;-76
2021/10/18 01:41:26;;;;;;;40.77;13.77;;;;;;;-145.69;100.00;72660.19;5094301;28;20682;-75
2021/10/18 01:43:53;;;;;;;44.20;13.27;;;;;;;-145.69;100.00;72656.22;5094521;28;20206;-76
2021/10/18 01:46:19;;;;;;;39.53;13.30;;;;;;;-145.69;100.00;72654.22;5094397;28;20209;-76
2021/10/18 01:48:46;;;;;;;37.27;12.53;;;;;;;-145.69;100.00;72652.22;5094279;28;20199;-76
2021/10/18 01:51:12;;;;;;;37.63;12.67;;;;;;;-145.69;100.00;72644.25;5094188;28;20675;-76
2021/10/18 01:53:39;;;;;;;41.97;13.17;;;;;;;-145.69;100.00;72634.31;5094038;28;20255;-76
2021/10/18 01:56:07;;;;;;;41.83;11.90;;;;;;;-145.69;100.00;72630.31;5094203;28;20195;-76
2021/10/18 01:58:34;;;;;;;36.40;12.20;;;;;;;-145.69;100.00;72634.31;5094107;28;20599;-76
2021/10/18 02:01:01;;;;;;;42.40;14.87;;;;;;;-145.69;100.00;72636.31;5094050;28;20210;-76
2021/10/18 02:03:28;;;;;;;56.90;15.90;;;;;;;-145.69;100.00;72632.31;5094172;28;20213;-75
2021/10/18 02:05:54;;;;;;;48.13;15.43;;;;;;;-145.69;100.00;72628.34;5093965;28;20202;-75
2021/10/18 02:08:21;;;;;;;41.53;14.00;;;;;;;-145.69;100.00;72636.31;5093881;28;20231;-75
2021/10/18 02:10:47;;;;;;;40.37;13.00;;;;;;;-145.69;100.00;72652.22;5093896;28;20672;-75
2021/10/18 02:13:15;;;;;;;45.23;14.03;;;;;;;-145.69;100.00;72652.22;5093861;28;20205;-75
2021/10/18 02:15:41;;;;;;;43.10;14.40;;;;;;;-145.69;100.00;72648.25;5093909;28;20229;-75
2021/10/18 02:18:08;;;;;;;47.17;13.93;;;;;;;-145.69;100.00;72658.19;5093752;28;20205;-76
2021/10/18 02:20:34;;;;;;;38.43;12.97;;;;;;;-145.69;100.00;72664.16;5093702;28;20202;-75
2021/10/18 02:23:01;;;;;;;41.70;13.37;;;;;;;-145.69;100.00;72670.13;5093545;28;20263;-75
2021/10/18 02:25:28;;;;;;;44.05;16.52;;;;;;;-145.69;100.00;72676.09;5092988;28;20439;-75
2021/10/18 02:27:54;;;;;;;44.33;14.00;;;;;;;-145.69;100.00;72672.13;5093571;28;20198;-75
2021/10/18 02:30:22;;;;;;;41.13;12.90;;;;;;;-145.69;100.00;72676.09;5093493;28;20684;-75
2021/10/18 02:32:48;;;;;;;45.13;14.47;;;;;;;-145.69;100.00;72676.09;5093471;28;20205;-76
2021/10/18 02:35:15;;;;;;;40.80;13.83;;;;;;;-145.69;100.00;72676.09;5093145;28;20241;-76
2021/10/18 02:37:42;;;;;;;36.27;13.30;;;;;;;-145.69;100.00;72668.16;5093343;28;20679;-75
2021/10/18 02:40:09;;;;;;;37.50;12.93;;;;;;;-145.69;100.00;72676.09;5093617;28;20194;-75
2021/10/18 02:42:36;;;;;;;37.67;13.40;;;;;;;-145.69;100.00;72670.13;5093478;28;20224;-75
2021/10/18 02:45:02;;;;;;;30.93;12.00;;;;;;;-145.69;100.00;72672.13;5093455;28;20247;-76
2021/10/18 02:47:30;;;;;;;28.37;10.87;;;;;;;-145.69;100.00;72672.13;5093385;28;20252;-75
2021/10/18 02:49:57;;;;;;;40.20;12.17;;;;;;;-145.69;100.00;72680.09;5093186;28;20202;-75
2021/10/18 02:52:23;;;;;;;26.00;10.27;;;;;;;-145.69;100.00;72690.03;5093560;28;20201;-76
2021/10/18 02:54:49;;;;;;;28.00;9.83;;;;;;;-145.69;100.00;72688.06;5092517;28;20222;-76
2021/10/18 02:57:18;;;;;;;25.87;10.10;;;;;;;-145.69;100.00;72703.97;5075259;28;20199;-75
2021/10/18 02:59:44;;;;;;;24.07;10.43;;;;;;;-145.69;100.00;72713.94;5072448;28;20203;-75
2021/10/18 03:02:11;;;;;;;25.40;9.90;;;;;;;-145.69;100.00;72731.84;5072957;28;20206;-76
2021/10/18 03:04:39;;;;;;;19.87;8.43;;;;;;;-145.69;100.00;72751.75;5073159;28;20301;-76
2021/10/18 03:07:06;;;;;;;18.53;7.70;;;;;;;-145.69;100.00;72783.59;5073198;28;20195;-75
2021/10/18 03:09:32;;;;;;;16.90;7.60;;;;;;;-145.69;100.00;72809.47;5073141;28;20194;-75
2021/10/18 03:11:59;;;;;;;17.43;7.37;;;;;;;-145.69;100.00;72835.34;5073030;28;20198;-75
2021/10/18 03:14:25;;;;;;;15.77;7.70;;;;;;;-145.69;100.00;72847.28;5072965;28;20230;-76
2021/10/18 03:16:52;;;;;;;13.73;6.83;;;;;;;-145.69;100.00;72859.25;5072722;28;20252;-77
2021/10/18 03:19:18;;;;;;;16.95;7.88;;;;;;;-145.69;100.00;72861.22;5072942;28;20387;-75
2021/10/18 03:21:46;;;;;;;20.40;8.03;;;;;;;-145.69;100.00;72867.19;5073128;28;20202;-76
2021/10/18 03:24:13;;;;;;;18.93;8.00;;;;;;;-145.69;100.00;72881.13;5072784;28;20203;-75
2021/10/18 03:26:39;;;;;;;18.63;6.90;;;;;;;-145.69;100.00;72883.13;5072700;28;20199;-75
2021/10/18 03:29:06;;;;;;;21.57;8.07;;;;;;;-145.69;100.00;72891.09;5072774;28;20248;-77
2021/10/18 03:31:32;;;;;;;18.80;7.27;;;;;;;-145.69;100.00;72889.09;5072704;28;20206;-77
2021/10/18 03:33:59;;;;;;;19.80;7.47;;;;;;;-145.69;100.00;72889.09;5072389;28;20284;-77
2021/10/18 03:36:25;;;;;;;18.93;7.47;;;;;;;-145.69;100.00;72909.00;5072565;28;20236;-76
2021/10/18 03:38:53;;;;;;;13.77;6.30;;;;;;;-145.69;100.00;72936.88;5072865;28;20213;-77
2021/10/18 03:41:19;;;;;;;11.63;6.13;;;;;;;-145.69;100.00;72954.78;5072750;28;20195;-77
2021/10/18 03:43:46;;;;;;;12.90;6.13;;;;;;;-145.69;100.00;72962.75;5072633;28;20195;-77
2021/10/18 03:46:12;;;;;;;11.53;5.47;;;;;;;-145.69;100.00;72990.63;5072347;28;20229;-77
2021/10/18 03:48:38;;;;;;;11.73;6.33;;;;;;;-145.69;100.00;72996.59;5072414;28;20203;-77
2021/10/18 03:51:05;;;;;;;13.63;5.90;;;;;;;-145.69;100.00;72996.59;5072711;28;20199;-76
2021/10/18 03:53:31;;;;;;;12.47;6.00;;;;;;;-145.69;100.00;73010.53;5072614;28;20207;-77
2021/10/18 03:55:59;;;;;;;14.23;6.30;;;;;;;-145.69;100.00;73010.53;5072443;28;20255;-77
2021/10/18 03:58:26;;;;;;;17.57;7.30;;;;;;;-145.69;100.00;73032.44;5072507;28;20198;-76
2021/10/18 04:00:52;;;;;;;13.47;6.50;;;;;;;-145.69;100.00;73050.34;5072322;28;20205;-77
2021/10/18 04:03:19;;;;;;;11.83;5.13;;;;;;;-145.69;100.00;73070.25;5072604;28;20252;-76
2021/10/18 04:05:45;;;;;;;13.87;5.00;;;;;;;-145.69;100.00;73082.19;5072295;28;20683;-76
2021/10/18 04:08:11;;;;;;;12.13;5.97;;;;;;;-145.69;100.00;73086.19;5072542;28;20209;-76
2021/10/18 04:10:38;;;;;;;12.97;5.87;;;;;;;-145.69;100.00;73086.19;5072404;28;20250;-76
2021/10/18 04:13:06;;;;;;;12.73;6.23;;;;;;;-145.69;100.00;73090.16;5075229;28;20199;-77
2021/10/18 04:15:32;;;;;;;15.47;6.87;;;;;;;-145.69;100.00;73082.19;5075723;28;20226;-77
2021/10/18 04:17:59;;;;;;;20.10;7.17;;;;;;;-145.69;100.00;73078.22;5076033;28;20600;-77
2021/10/18 04:20:25;;;;;;;19.10;7.53;;;;;;;-145.69;100.00;73082.19;5075868;28;20206;-77
2021/10/18 04:22:51;;;;;;;24.53;8.33;;;;;;;-145.69;100.00;73070.25;5075930;28;20210;-77
2021/10/18 04:25:18;;;;;;;24.77;8.87;;;;;;;-145.69;100.00;73068.25;5075724;28;20236;-77
2021/10/18 04:27:45;;;;;;;15.50;6.77;;;;;;;-145.69;100.00;73080.19;5075555;28;20198;-77
2021/10/18 04:30:13;;;;;;;11.70;5.87;;;;;;;-145.69;100.00;73090.16;5075676;28;20207;-77
2021/10/18 04:32:39;;;;;;;12.47;6.03;;;;;;;-145.69;100.00;73106.09;5075447;28;20206;-77
2021/10/18 04:35:07;;;;;;;14.07;6.10;;;;;;;-145.69;100.00;73114.03;5075279;28;20633;-78
2021/10/18 04:37:33;;;;;;;11.60;5.50;;;;;;;-145.69;100.00;73110.06;5075750;28;20195;-77
2021/10/18 04:40:00;;;;;;;15.97;7.13;;;;;;;-145.69;100.00;73088.16;5075466;28;20268;-77
2021/10/18 04:42:27;;;;;;;17.87;7.47;;;;;;;-145.69;100.00;73062.28;5075544;28;20203;-77
2021/10/18 04:44:53;;;;;;;25.03;8.53;;;;;;;-145.69;100.00;73030.44;5075644;28;20274;-78
2021/10/18 04:47:21;;;;;;;30.90;9.50;;;;;;;-145.69;100.00;73014.50;5075530;28;20195;-77
2021/10/18 04:49:48;;;;;;;26.10;9.37;;;;;;;-145.69;100.00;73000.56;5075410;28;20561;-77
2021/10/18 04:52:14;;;;;;;23.93;8.63;;;;;;;-145.69;100.00;72988.63;5075593;28;20198;-77
2021/10/18 04:54:41;;;;;;;20.83;7.80;;;;;;;-145.69;100.00;72980.66;5075346;28;20229;-77
2021/10/18 04:57:07;;;;;;;19.13;7.60;;;;;;;-145.69;100.00;72976.69;5075013;28;20233;-77
2021/10/18 04:59:33;;;;;;;14.37;6.37;;;;;;;-145.69;100.00;72974.69;5075235;28;20596;-77
2021/10/18 05:02:00;;;;;;;15.70;6.53;;;;;;;-145.69;100.00;72972.72;5077174;28;20611;-77
2021/10/18 05:04:28;;;;;;;24.93;7.57;;;;;;;-145.69;100.00;72966.72;5074911;28;20199;-78
2021/10/18 05:06:54;;;;;;;33.40;9.23;;;;;;;-145.69;100.00;72954.78;5074841;28;20202;-77
2021/10/18 05:09:21;;;;;;;25.20;8.93;;;;;;;-145.69;100.00;72950.81;5074972;28;20607;-77
2021/10/18 05:11:47;;;;;;;30.33;8.07;;;;;;;-145.69;100.00;72950.81;5074735;28;20198;-77
2021/10/18 05:14:14;;;;;;;35.50;8.33;;;;;;;-145.69;100.00;72966.72;5074685;28;20255;-77
2021/10/18 05:16:40;;;;;;;25.13;8.00;;;;;;;-145.69;100.00;72994.59;5074641;28;20226;-77
2021/10/18 05:19:07;;;;;;;16.83;7.33;;;;;;;-145.69;100.00;73034.41;5074566;28;20201;-77
2021/10/18 05:21:35;;;;;;;14.67;7.00;;;;;;;-145.69;100.00;73062.28;5074474;28;20198;-77
2021/10/18 05:24:01;;;;;;;13.27;6.33;;;;;;;-145.69;100.00;73082.19;5073844;28;20199;-77
2021/10/18 05:26:28;;;;;;;16.77;6.87;;;;;;;-145.69;100.00;73096.13;5074621;28;20207;-77
2021/10/18 05:28:54;;;;;;;10.67;5.53;;;;;;;-145.69;100.00;73124.00;5074663;28;20596;-77
2021/10/18 05:31:21;;;;;;;12.07;5.80;;;;;;;-145.69;100.00;73143.91;5074592;28;20199;-76
2021/10/18 05:33:47;;;;;;;14.40;6.10;;;;;;;-145.69;100.00;73139.91;5074298;28;20227;-77
2021/10/18 05:36:13;;;;;;;12.97;6.03;;;;;;;-145.69;100.00;73155.84;5074380;28;20235;-78
2021/10/18 05:38:41;;;;;;;15.13;5.93;;;;;;;-145.69;100.00;73159.84;5074063;28;20600;-77
2021/10/18 05:41:08;;;;;;;14.80;6.53;;;;;;;-145.69;100.00;73173.75;5073767;28;20596;-77
2021/10/18 05:43:34;;;;;;;19.43;6.87;;;;;;;-145.69;100.00;73183.72;5074095;28;20199;-77
2021/10/18 05:46:01;;;;;;;20.07;7.27;;;;;;;-145.69;100.00;73169.78;5074003;28;20209;-77
2021/10/18 05:48:27;;;;;;;15.10;6.93;;;;;;;-145.69;100.00;73157.84;5074391;28;20730;-78
2021/10/18 05:50:54;;;;;;;21.20;7.83;;;;;;;-145.69;100.00;73157.84;5074191;28;20225;-78
2021/10/18 05:53:20;;;;;;;18.07;7.63;;;;;;;-145.69;100.00;73163.81;5073746;28;20206;-78
2021/10/18 05:55:49;;;;;;;15.13;7.00;;;;;;;-145.69;100.00;73187.69;5074418;28;20276;-77
2021/10/18 05:58:15;;;;;;;16.93;7.63;;;;;;;-145.69;100.00;73177.75;5074419;28;20203;-78
2021/10/18 06:00:44;;;;;;;15.60;6.80;;;;;;;-145.69;100.00;73181.72;5073677;28;20232;-78
2021/10/18 06:03:12;;;;;;;17.13;7.60;;;;;;;-145.69;100.00;73195.66;5074100;28;20203;-77
2021/10/18 06:05:43;;;;;;;15.50;6.80;;;;;;;-145.69;100.00;73209.59;5074166;28;20248;-78
2021/10/18 06:08:11;;;;;;;16.37;7.23;;;;;;;-145.69;100.00;73211.59;5074146;28;20199;-78
2021/10/18 06:10:38;;;;;;;26.63;8.80;;;;;;;-145.69;100.00;73201.63;5073900;28;20195;-77
2021/10/18 06:13:07;;;;;;;27.23;8.03;;;;;;;-145.69;100.00;73193.66;5073604;28;20591;-78
2021/10/18 06:15:34;;;;;;;19.37;8.07;;;;;;;-145.69;100.00;73185.72;5073607;28;20280;-77
2021/10/18 06:18:08;;;;;;;24.03;8.60;;;;;;;-145.69;100.00;73191.69;5073761;28;20198;-77
2021/10/18 06:20:35;;;;;;;21.80;8.80;;;;;;;-145.69;100.00;73191.69;5073470;28;20194;-77
2021/10/18 06:23:01;;;;;;;26.90;9.20;;;;;;;-145.69;100.00;73185.72;5073373;28;20665;-78
2021/10/18 06:25:29;;;;;;;32.73;10.60;;;;;;;-145.69;100.00;73165.81;5073540;28;20202;-77
2021/10/18 06:27:56;;;;;;;26.33;10.00;;;;;;;-145.69;100.00;73155.84;5073590;28;20310;-77
2021/10/18 06:30:26;;;;;;;24.37;9.07;;;;;;;-145.69;100.00;73167.78;5073428;28;20202;-78
2021/10/18 06:32:53;;;;;;;22.20;8.47;;;;;;;-145.69;100.00;73167.78;5073208;28;20270;-77
2021/10/18 06:35:19;;;;;;;26.87;9.93;;;;;;;-145.69;100.00;73163.81;5072461;28;20277;-77
2021/10/18 06:37:46;;;;;;;36.40;11.60;;;;;;;-145.69;100.00;73135.94;5073282;28;20203;-77
2021/10/18 06:40:12;;;;;;;42.03;13.20;;;;;;;-145.69;100.00;73108.06;5073160;28;20653;-77
2021/10/18 06:42:39;;;;;;;40.23;13.27;;;;;;;-145.69;100.00;73106.09;5073453;28;20238;-77
2021/10/18 06:45:07;;;;;;;43.47;12.97;;;;;;;-145.69;100.00;73106.09;5073044;28;20198;-78
2021/10/18 06:47:35;;;;;;;40.83;12.67;;;;;;;-145.69;100.00;73102.09;5073214;28;20202;-77
2021/10/18 06:50:01;;;;;;;38.43;12.37;;;;;;;-145.69;100.00;73098.13;5073394;28;20203;-77
2021/10/18 06:52:32;;;;;;;43.83;13.43;;;;;;;-145.69;100.00;73082.19;5072831;28;20649;-77
2021/10/18 06:54:59;;;;;;;45.93;13.77;;;;;;;-145.69;100.00;73082.19;5073125;28;20238;-77
2021/10/18 06:57:25;;;;;;;47.23;14.67;;;;;;;-145.69;100.00;73066.25;5073113;28;20538;-77
2021/10/18 06:59:52;;;;;;;39.10;12.23;;;;;;;-145.69;100.00;73076.22;5075268;28;20198;-77
2021/10/18 07:02:18;;;;;;;38.30;12.47;;;;;;;-145.69;100.00;73062.28;5073449;28;20206;-77
2021/10/18 07:04:46;;;;;;;46.67;13.73;;;;;;;-145.69;100.00;73054.31;5073209;28;20202;-76
2021/10/18 07:07:12;;;;;;;40.53;12.37;;;;;;;-145.69;100.00;73056.31;5073146;28;20280;-77
2021/10/18 07:09:39;;;;;;;39.73;12.20;;;;;;;-145.69;100.00;73050.34;5072945;28;20207;-77
2021/10/18 07:12:06;;;;;;;45.53;13.00;;;;;;;-145.69;100.00;73042.38;5072914;28;20206;-77
2021/10/18 07:14:32;;;;;;;36.97;12.63;;;;;;;-145.69;100.00;73052.34;5072641;28;20202;-77
2021/10/18 07:16:59;;;;;;;28.17;10.33;;;;;;;-145.69;100.00;73054.31;5072655;28;20757;-78
2021/10/18 07:19:25;;;;;;;33.77;10.17;;;;;;;-145.69;100.00;73042.38;5072922;28;20260;-78
2021/10/18 07:21:53;;;;;;;29.00;9.13;;;;;;;-145.69;100.00;73036.41;5073069;28;20603;-77
2021/10/18 07:24:20;;;;;;;28.73;10.47;;;;;;;-145.69;100.00;73018.50;5072654;28;20202;-77
2021/10/18 07:26:49;;;;;;;29.50;9.90;;;;;;;-145.69;100.00;73014.50;5072592;28;20630;-77
2021/10/18 07:29:16;;;;;;;21.90;9.40;;;;;;;-145.69;100.00;72998.59;5072458;28;20244;-77
2021/10/18 07:31:43;;;;;;;36.53;10.67;;;;;;;-145.69;100.00;72982.66;5072509;28;20198;-78
2021/10/18 07:34:14;;;;;;;31.53;10.30;;;;;;;-145.69;100.00;72962.75;5072520;28;20288;-77
2021/10/18 07:36:48;;;;;;;35.70;10.80;;;;;;;-145.69;100.00;72946.81;5072594;28;20279;-77
2021/10/18 07:39:16;;;;;;;42.23;11.67;;;;;;;-145.69;100.00;72922.94;5072528;28;20386;-77
2021/10/18 07:41:43;;;;;;;33.20;12.20;;;;;;;-145.69;100.00;72922.94;5072360;28;20210;-77
2021/10/18 07:44:09;;;;;;;30.20;10.83;;;;;;;-145.69;100.00;72911.00;5072641;28;20285;-76
2021/10/18 07:46:36;;;;;;;28.40;9.73;;;;;;;-145.69;100.00;72903.03;5074667;28;20657;-76
2021/10/18 07:49:05;;;;;;;34.00;11.53;;;;;;;-145.69;100.00;72883.13;5076296;28;20214;-77
2021/10/18 07:51:32;;;;;;;35.80;11.83;;;;;;;-145.69;100.00;72863.22;5076315;28;20672;-77
2021/10/18 07:53:58;;;;;;;34.80;10.73;;;;;;;-145.69;100.00;72843.31;5076303;28;20454;-79
2021/10/18 07:56:26;;;;;;;32.57;10.50;;;;;;;-145.69;100.00;72823.41;5075869;28;20234;-78
2021/10/18 07:58:53;;;;;;;30.73;11.10;;;;;;;-145.69;100.00;72807.47;5086753;28;20198;-77
2021/10/18 08:01:19;;;;;;;32.97;11.40;;;;;;;-145.69;100.00;72781.59;5095422;28;20198;-78
2021/10/18 08:03:45;;;;;;;32.55;16.52;;;;;;;-145.69;100.00;72751.75;5095384;28;20432;-78
2021/10/18 08:06:12;;;;;;;31.00;12.27;;;;;;;-145.69;100.00;72729.84;5095925;28;20198;-78
2021/10/18 08:08:45;;;;;;;29.70;11.40;;;;;;;-145.69;100.00;72707.97;5095853;28;20202;-77
2021/10/18 08:11:12;;;;;;;28.93;11.33;;;;;;;-145.69;100.00;72676.09;5096292;28;20237;-77
2021/10/18 08:13:40;;;;;;;29.07;11.93;;;;;;;-145.69;100.00;72672.13;5095955;28;20193;-78
2021/10/18 08:16:06;;;;;;;23.20;10.50;;;;;;;-145.69;100.00;72668.16;5095710;28;20222;-77
2021/10/18 08:18:33;;;;;;;17.40;9.47;;;;;;;-145.69;100.00;72660.19;5095764;28;20194;-76
2021/10/18 08:21:00;;;;;;;17.30;8.53;;;;;;;-145.69;100.00;72652.22;5095803;28;20200;-77
2021/10/18 08:23:26;;;;;;;13.27;6.63;;;;;;;-145.69;100.00;72646.25;5095553;28;20210;-76
2021/10/18 08:25:53;;;;;;;25.10;7.00;;;;;;;-145.69;100.00;72640.28;5095865;28;20202;-76
2021/10/18 08:28:19;;;;;;;13.93;6.73;;;;;;;-145.69;100.00;72628.34;5095579;28;20247;-77
2021/10/18 08:30:47;;;;;;;14.27;6.17;;;;;;;-145.69;100.00;72624.34;5095880;28;20198;-76
2021/10/18 08:33:13;;;;;;;9.47;5.43;;;;;;;-145.69;100.00;72612.41;5095660;28;20201;-76
2021/10/18 08:35:40;;;;;;;10.17;5.33;;;;;;;-145.69;100.00;72598.47;5095260;28;20225;-76
2021/10/18 08:38:21;;;;;;;9.23;4.93;;;;;;;-145.69;100.00;72588.53;5095999;28;20202;-76
2021/10/18 08:41:00;;;;;;;9.33;5.00;;;;;;;-145.69;100.00;72580.56;5095349;28;20660;-75
2021/10/18 08:44:13;;;;;;;10.17;5.37;;;;;;;-145.69;100.00;72576.59;5095486;28;20247;-77
2021/10/18 08:46:20;;;;;;;8.57;5.37;;;;;;;-145.69;100.00;72556.69;5095132;28;20202;-77
2021/10/18 08:48:50;;;;;;;10.73;4.80;;;;;;;-145.69;100.00;72538.78;5095307;28;20194;-76
2021/10/18 08:51:17;;;;;;;9.30;5.07;;;;;;;-145.69;100.00;72540.75;5095157;28;20902;-76
2021/10/18 08:53:43;;;;;;;10.97;5.23;;;;;;;-145.69;100.00;72528.81;5095391;28;20206;-76
2021/10/18 08:56:10;;;;;;;9.37;4.90;;;;;;;-145.69;100.00;72508.91;5095175;28;20233;-76
2021/10/18 08:58:36;;;;;;;10.13;4.97;;;;;;;-145.69;100.00;72496.97;5094186;28;20272;-77
2021/10/18 09:01:03;;;;;;;10.97;5.10;;;;;;;-145.69;100.00;72504.94;5091677;28;20553;-77
2021/10/18 09:03:33;;;;;;;8.37;4.73;;;;;;;-145.69;100.00;72500.94;5095108;28;20194;-76
2021/10/18 09:06:11;;;;;;;8.57;4.63;;;;;;;-145.69;100.00;72487.00;5095283;28;20205;-77
2021/10/18 09:08:40;;;;;;;7.57;4.43;;;;;;;-145.69;100.00;72477.06;5094999;28;20206;-77
2021/10/18 09:11:11;;;;;;;9.50;4.77;;;;;;;-145.69;100.00;72459.16;5094729;28;20202;-76
2021/10/18 09:13:43;;;;;;;9.27;5.07;;;;;;;-145.69;100.00;72425.31;5094546;28;20643;-76
2021/10/18 09:16:11;;;;;;;13.13;6.37;;;;;;;-145.69;100.00;72397.44;5094707;28;20311;-77
2021/10/18 09:18:44;;;;;;;14.50;5.47;;;;;;;-145.69;100.00;72375.56;5094682;28;20205;-77
2021/10/18 09:21:10;;;;;;;11.90;5.63;;;;;;;-145.69;100.00;72357.66;5094654;28;20297;-77
2021/10/18 09:23:40;;;;;;;11.47;5.90;;;;;;;-145.69;100.00;72341.72;5094456;28;20206;-76
2021/10/18 09:26:09;;;;;;;10.37;5.80;;;;;;;-145.69;100.00;72329.78;5094901;28;20549;-77
2021/10/18 09:28:36;;;;;;;8.97;5.10;;;;;;;-145.69;100.00;72319.81;5091477;28;20198;-77
2021/10/18 09:31:04;;;;;;;9.93;4.60;;;;;;;-145.69;100.00;72307.88;5094619;28;20703;-76
2021/10/18 09:33:34;;;;;;;8.07;4.63;;;;;;;-145.69;100.00;72287.97;5094306;28;20568;-77
2021/10/18 09:36:05;;;;;;;8.97;4.43;;;;;;;-145.69;100.00;72260.13;5094418;28;20194;-76
2021/10/18 09:38:32;;;;;;;9.20;4.47;;;;;;;-145.69;100.00;72236.22;5094166;28;20302;-76
2021/10/18 09:41:00;;;;;;;9.60;5.03;;;;;;;-145.69;100.00;72230.25;5094547;28;20198;-77
2021/10/18 09:43:32;;;;;;;9.93;4.30;;;;;;;-145.69;100.00;72214.34;5094238;28;20209;-76
2021/10/18 09:46:06;;;;;;;8.20;4.33;;;;;;;-145.69;100.00;72198.41;5094288;28;20209;-77
2021/10/18 10:51:18;;;;;;;6.90;4.25;;;;;;;-145.69;85.21;72011.34;5093204;28;20668;-78
2021/10/18 10:53:47;;;;;;;8.15;4.70;;;;;;;-145.69;87.62;71979.50;5093034;28;20739;-78
2021/10/18 10:56:24;;;;;;;7.50;4.13;;;;;;;-145.69;84.29;71965.56;5093062;28;20221;-78
2021/10/18 10:58:59;;;;;;;7.95;3.85;;;;;;;-145.69;81.77;71947.66;5091260;28;20194;-78
2021/10/18 11:01:45;;;;;;;8.23;4.10;;;;;;;-145.69;81.89;71955.63;5072906;28;20225;-78
2021/10/18 11:04:46;;;;;;;12.07;4.30;;;;;;;-145.69;85.72;71927.75;5073099;28;20198;-79
2021/10/18 11:07:16;;;;;;;8.13;3.60;;;;;;;-145.69;79.20;71907.84;5072611;28;20534;-78
2021/10/18 11:09:45;;;;;;;6.85;3.50;;;;;;;-145.69;76.97;71897.91;5072387;28;20203;-77
2021/10/18 11:12:25;;;;;;;8.27;4.05;;;;;;;-145.69;77.56;71903.88;5072361;28;20207;-79
2021/10/18 11:15:01;;;;;;;5.70;2.92;;;;;;;-145.69;69.15;71911.84;5072992;28;20206;-78
2021/10/18 11:17:30;;;;;;;5.97;2.38;;;;;;;-145.69;63.64;71907.84;5072687;28;20226;-79
2021/10/18 11:19:58;;;;;;;8.55;2.42;;;;;;;-145.69;61.09;71903.88;5072634;28;20207;-79
2021/10/18 11:22:27;;;;;;;2.63;1.80;;;;;;;-145.69;59.39;71897.91;5076292;28;20297;-79
2021/10/18 11:24:57;;;;;;;2.60;1.70;;;;;;;-145.69;58.51;71895.91;5076872;28;20203;-78
2021/10/18 11:27:25;;;;;;;2.80;1.75;;;;;;;-145.69;58.40;71893.91;5076577;28;20199;-78
2021/10/18 11:30:00;;;;;;;2.75;1.75;;;;;;;-145.69;58.96;71885.97;5076771;28;20204;-79
2021/10/18 11:32:27;;;;;;;3.22;1.70;;;;;;;-145.69;60.38;71856.09;5076091;28;20205;-78
2021/10/18 11:35:13;;;;;;;3.10;1.80;;;;;;;-145.69;59.78;71854.13;5076130;28;20325;-78
2021/10/18 11:37:55;;;;;;;3.53;2.00;;;;;;;-145.69;58.33;71838.19;5076343;28;20233;-78
2021/10/18 11:40:25;;;;;;;4.47;2.08;;;;;;;-145.69;57.95;71826.25;5076120;28;20203;-79
2021/10/18 11:42:53;;;;;;;2.38;1.45;;;;;;;-145.69;54.12;71788.44;5076644;28;20221;-78
2021/10/18 11:45:23;;;;;;;3.40;1.63;;;;;;;-145.69;53.02;71754.63;5075799;28;20203;-78
2021/10/18 11:47:49;;;;;;;1.45;1.35;;;;;;;-145.69;50.39;71732.72;5075965;28;20207;-79
2021/10/18 11:50:24;;;;;;;3.28;1.67;;;;;;;-145.69;51.94;71712.81;5076103;28;20199;-78
2021/10/18 11:52:53;;;;;;;3.25;1.63;;;;;;;-145.69;49.95;71704.88;5076064;28;20205;-78
2021/10/18 11:55:24;;;;;;;3.70;1.40;;;;;;;-145.69;52.17;71688.94;5076056;28;20207;-78
2021/10/18 11:57:52;;;;;;;2.38;1.60;;;;;;;-145.69;49.66;71682.97;5075821;28;20608;-78
2021/10/18 12:00:23;;;;;;;4.60;1.70;;;;;;;-145.69;49.22;71669.03;5076078;28;20256;-78
2021/10/18 12:02:49;;;;;;;3.13;1.65;;;;;;;-145.69;48.27;71675.00;5075980;28;20203;-78
2021/10/18 12:05:18;;;;;;;2.35;1.67;;;;;;;-145.69;51.53;71661.09;5075827;28;20202;-77